sensor_id;sensor_type;location;lat;lon;timestamp;pressure;altitude;pressure_sealevel;temperature;humidity
4972;BME280;2501;51.214;6.768;2023-03-11T00:00:46;100334.69;;;1.27;99.33
4972;BME280;2501;51.214;6.768;2023-03-11T00:03:16;100325.28;;;1.29;99.23
4972;BME280;2501;51.214;6.768;2023-03-11T00:05:49;100341.03;;;1.35;98.85
4972;BME280;2501;51.214;6.768;2023-03-11T00:08:19;100338.50;;;1.36;98.58
4972;BME280;2501;51.214;6.768;2023-03-11T00:10:52;100342.66;;;1.33;98.58
4972;BME280;2501;51.214;6.768;2023-03-11T00:13:21;100347.34;;;1.19;98.63
4972;BME280;2501;51.214;6.768;2023-03-11T00:15:51;100349.78;;;1.40;98.70
4972;BME280;2501;51.214;6.768;2023-03-11T00:18:20;100353.78;;;1.30;98.40
4972;BME280;2501;51.214;6.768;2023-03-11T00:20:52;100356.22;;;1.27;97.97
4972;BME280;2501;51.214;6.768;2023-03-11T00:23:22;100357.88;;;1.25;97.88
4972;BME280;2501;51.214;6.768;2023-03-11T00:25:53;100357.88;;;1.25;97.80
4972;BME280;2501;51.214;6.768;2023-03-11T00:28:24;100368.09;;;1.22;98.15
4972;BME280;2501;51.214;6.768;2023-03-11T00:30:52;100368.28;;;1.27;98.08
4972;BME280;2501;51.214;6.768;2023-03-11T00:33:21;100367.56;;;1.31;97.68
4972;BME280;2501;51.214;6.768;2023-03-11T00:35:50;100373.16;;;1.19;97.25
4972;BME280;2501;51.214;6.768;2023-03-11T00:38:19;100377.72;;;1.26;96.89
4972;BME280;2501;51.214;6.768;2023-03-11T00:40:48;100383.94;;;1.31;96.56
4972;BME280;2501;51.214;6.768;2023-03-11T00:43:19;100384.66;;;1.27;96.57
4972;BME280;2501;51.214;6.768;2023-03-11T00:45:47;100386.47;;;1.30;96.81
4972;BME280;2501;51.214;6.768;2023-03-11T00:48:16;100384.84;;;1.32;96.91
4972;BME280;2501;51.214;6.768;2023-03-11T00:50:44;100386.53;;;1.31;96.89
4972;BME280;2501;51.214;6.768;2023-03-11T00:53:13;100385.25;;;1.20;97.27
4972;BME280;2501;51.214;6.768;2023-03-11T00:55:41;100395.03;;;1.29;97.32
4972;BME280;2501;51.214;6.768;2023-03-11T00:58:11;100393.94;;;1.22;97.34
4972;BME280;2501;51.214;6.768;2023-03-11T01:00:42;100397.75;;;1.32;97.51
4972;BME280;2501;51.214;6.768;2023-03-11T01:03:11;100397.69;;;1.30;97.18
4972;BME280;2501;51.214;6.768;2023-03-11T01:05:39;100393.84;;;1.43;96.70
4972;BME280;2501;51.214;6.768;2023-03-11T01:08:08;100406.31;;;1.31;96.03
4972;BME280;2501;51.214;6.768;2023-03-11T01:10:36;100404.25;;;1.22;95.85
4972;BME280;2501;51.214;6.768;2023-03-11T01:13:04;100408.53;;;1.22;95.70
4972;BME280;2501;51.214;6.768;2023-03-11T01:15:35;100406.81;;;1.21;95.47
4972;BME280;2501;51.214;6.768;2023-03-11T01:18:06;100405.38;;;1.29;95.57
4972;BME280;2501;51.214;6.768;2023-03-11T01:20:36;100409.41;;;1.21;95.80
4972;BME280;2501;51.214;6.768;2023-03-11T01:23:06;100411.53;;;1.32;95.88
4972;BME280;2501;51.214;6.768;2023-03-11T01:25:35;100406.50;;;1.35;95.81
4972;BME280;2501;51.214;6.768;2023-03-11T01:28:04;100414.31;;;1.37;95.55
4972;BME280;2501;51.214;6.768;2023-03-11T01:30:34;100414.38;;;1.38;95.44
4972;BME280;2501;51.214;6.768;2023-03-11T01:33:03;100415.91;;;1.33;95.79
4972;BME280;2501;51.214;6.768;2023-03-11T01:35:34;100417.03;;;1.42;95.75
4972;BME280;2501;51.214;6.768;2023-03-11T01:38:04;100426.41;;;1.38;95.62
4972;BME280;2501;51.214;6.768;2023-03-11T01:40:34;100425.69;;;1.42;95.90
4972;BME280;2501;51.214;6.768;2023-03-11T01:43:04;100419.53;;;1.38;95.78
4972;BME280;2501;51.214;6.768;2023-03-11T01:45:40;100426.44;;;1.39;95.66
4972;BME280;2501;51.214;6.768;2023-03-11T01:48:09;100429.56;;;1.31;95.49
4972;BME280;2501;51.214;6.768;2023-03-11T01:50:42;100427.75;;;1.28;95.69
4972;BME280;2501;51.214;6.768;2023-03-11T01:53:12;100431.03;;;1.24;95.77
4972;BME280;2501;51.214;6.768;2023-03-11T01:55:43;100435.44;;;1.27;95.61
4972;BME280;2501;51.214;6.768;2023-03-11T01:58:15;100434.56;;;1.26;95.38
4972;BME280;2501;51.214;6.768;2023-03-11T02:00:45;100436.69;;;1.14;95.08
4972;BME280;2501;51.214;6.768;2023-03-11T02:03:17;100439.97;;;1.10;95.02
4972;BME280;2501;51.214;6.768;2023-03-11T02:05:50;100450.16;;;1.07;94.69
4972;BME280;2501;51.214;6.768;2023-03-11T02:08:19;100439.72;;;1.04;94.43
4972;BME280;2501;51.214;6.768;2023-03-11T02:10:49;100434.47;;;1.01;94.26
4972;BME280;2501;51.214;6.768;2023-03-11T02:13:19;100442.09;;;0.98;94.22
4972;BME280;2501;51.214;6.768;2023-03-11T02:15:48;100435.72;;;0.90;94.24
4972;BME280;2501;51.214;6.768;2023-03-11T02:18:17;100439.53;;;0.77;94.13
4972;BME280;2501;51.214;6.768;2023-03-11T02:20:52;100444.34;;;0.90;94.15
4972;BME280;2501;51.214;6.768;2023-03-11T02:23:24;100444.88;;;0.82;93.82
4972;BME280;2501;51.214;6.768;2023-03-11T02:26:00;100442.16;;;0.79;93.21
4972;BME280;2501;51.214;6.768;2023-03-11T02:28:36;100437.75;;;0.76;92.53
4972;BME280;2501;51.214;6.768;2023-03-11T02:31:07;100442.84;;;0.75;92.45
4972;BME280;2501;51.214;6.768;2023-03-11T02:33:36;100440.09;;;0.70;92.23
4972;BME280;2501;51.214;6.768;2023-03-11T02:36:05;100442.13;;;0.56;91.80
4972;BME280;2501;51.214;6.768;2023-03-11T02:38:33;100446.78;;;0.65;91.60
4972;BME280;2501;51.214;6.768;2023-03-11T02:41:02;100457.25;;;0.68;90.91
4972;BME280;2501;51.214;6.768;2023-03-11T02:43:36;100444.44;;;0.71;90.06
4972;BME280;2501;51.214;6.768;2023-03-11T02:46:08;100455.16;;;0.59;89.73
4972;BME280;2501;51.214;6.768;2023-03-11T02:48:38;100459.63;;;0.63;89.84
4972;BME280;2501;51.214;6.768;2023-03-11T02:51:07;100448.91;;;0.75;89.22
4972;BME280;2501;51.214;6.768;2023-03-11T02:53:39;100463.09;;;0.64;88.97
4972;BME280;2501;51.214;6.768;2023-03-11T02:56:09;100466.50;;;0.63;88.54
4972;BME280;2501;51.214;6.768;2023-03-11T02:58:40;100454.13;;;0.56;88.31
4972;BME280;2501;51.214;6.768;2023-03-11T03:01:09;100469.19;;;0.45;87.95
4972;BME280;2501;51.214;6.768;2023-03-11T03:03:37;100461.75;;;0.53;87.87
4972;BME280;2501;51.214;6.768;2023-03-11T03:06:06;100465.78;;;0.46;87.84
4972;BME280;2501;51.214;6.768;2023-03-11T03:08:34;100467.63;;;0.49;88.35
4972;BME280;2501;51.214;6.768;2023-03-11T03:11:03;100472.72;;;0.47;87.81
4972;BME280;2501;51.214;6.768;2023-03-11T03:13:32;100475.09;;;0.43;88.27
4972;BME280;2501;51.214;6.768;2023-03-11T03:16:04;100467.03;;;0.35;88.90
4972;BME280;2501;51.214;6.768;2023-03-11T03:18:32;100475.97;;;0.43;88.80
4972;BME280;2501;51.214;6.768;2023-03-11T03:21:01;100471.38;;;0.36;88.39
4972;BME280;2501;51.214;6.768;2023-03-11T03:23:29;100476.50;;;0.34;88.09
4972;BME280;2501;51.214;6.768;2023-03-11T03:26:00;100485.09;;;0.35;87.96
4972;BME280;2501;51.214;6.768;2023-03-11T03:28:28;100480.78;;;0.34;88.04
4972;BME280;2501;51.214;6.768;2023-03-11T03:31:07;100480.78;;;0.34;87.57
4972;BME280;2501;51.214;6.768;2023-03-11T03:33:36;100476.16;;;0.27;87.47
4972;BME280;2501;51.214;6.768;2023-03-11T03:36:05;100476.97;;;0.26;87.32
4972;BME280;2501;51.214;6.768;2023-03-11T03:38:34;100482.13;;;0.26;87.54
4972;BME280;2501;51.214;6.768;2023-03-11T03:41:03;100486.19;;;0.21;87.45
4972;BME280;2501;51.214;6.768;2023-03-11T03:43:31;100495.69;;;0.22;87.90
4972;BME280;2501;51.214;6.768;2023-03-11T03:46:01;100496.34;;;0.16;87.62
4972;BME280;2501;51.214;6.768;2023-03-11T03:48:33;100502.25;;;0.14;87.50
4972;BME280;2501;51.214;6.768;2023-03-11T03:51:03;100506.38;;;0.10;87.70
4972;BME280;2501;51.214;6.768;2023-03-11T03:53:33;100509.25;;;0.16;87.82
4972;BME280;2501;51.214;6.768;2023-03-11T03:56:02;100509.56;;;0.24;87.04
4972;BME280;2501;51.214;6.768;2023-03-11T03:58:31;100513.84;;;0.04;86.85
4972;BME280;2501;51.214;6.768;2023-03-11T04:00:59;100527.69;;;0.25;86.44
4972;BME280;2501;51.214;6.768;2023-03-11T04:03:29;100520.69;;;0.23;86.29
4972;BME280;2501;51.214;6.768;2023-03-11T04:06:09;100529.97;;;0.19;86.02
4972;BME280;2501;51.214;6.768;2023-03-11T04:08:38;100532.69;;;0.22;85.90
4972;BME280;2501;51.214;6.768;2023-03-11T04:11:07;100536.00;;;0.20;85.59
4972;BME280;2501;51.214;6.768;2023-03-11T04:13:35;100536.72;;;-0.04;86.13
4972;BME280;2501;51.214;6.768;2023-03-11T04:16:05;100540.44;;;0.03;86.37
4972;BME280;2501;51.214;6.768;2023-03-11T04:18:34;100543.81;;;0.02;85.72
4972;BME280;2501;51.214;6.768;2023-03-11T04:21:04;100542.47;;;0.10;85.84
4972;BME280;2501;51.214;6.768;2023-03-11T04:23:35;100550.06;;;0.07;85.57
4972;BME280;2501;51.214;6.768;2023-03-11T04:26:04;100545.00;;;0.09;85.95
4972;BME280;2501;51.214;6.768;2023-03-11T04:28:32;100541.75;;;0.13;85.71
4972;BME280;2501;51.214;6.768;2023-03-11T04:31:00;100541.09;;;0.18;86.09
4972;BME280;2501;51.214;6.768;2023-03-11T04:33:29;100551.09;;;0.30;85.89
4972;BME280;2501;51.214;6.768;2023-03-11T04:35:58;100560.81;;;0.16;86.43
4972;BME280;2501;51.214;6.768;2023-03-11T04:38:26;100552.50;;;0.23;85.98
4972;BME280;2501;51.214;6.768;2023-03-11T04:41:01;100557.88;;;0.09;86.54
4972;BME280;2501;51.214;6.768;2023-03-11T04:43:30;100560.53;;;0.10;87.06
4972;BME280;2501;51.214;6.768;2023-03-11T04:45:59;100572.53;;;0.10;86.72
4972;BME280;2501;51.214;6.768;2023-03-11T04:48:28;100568.53;;;-0.03;86.92
4972;BME280;2501;51.214;6.768;2023-03-11T04:50:56;100580.41;;;-0.07;87.18
4972;BME280;2501;51.214;6.768;2023-03-11T04:53:25;100574.69;;;0.00;87.25
4972;BME280;2501;51.214;6.768;2023-03-11T04:55:53;100581.28;;;-0.06;87.14
4972;BME280;2501;51.214;6.768;2023-03-11T04:58:24;100577.69;;;0.10;86.75
4972;BME280;2501;51.214;6.768;2023-03-11T05:00:53;100578.22;;;0.03;86.72
4972;BME280;2501;51.214;6.768;2023-03-11T05:03:21;100579.09;;;-0.16;86.86
4972;BME280;2501;51.214;6.768;2023-03-11T05:05:50;100583.97;;;-0.22;87.23
4972;BME280;2501;51.214;6.768;2023-03-11T05:08:21;100584.19;;;-0.18;87.38
4972;BME280;2501;51.214;6.768;2023-03-11T05:10:50;100580.75;;;-0.18;86.95
4972;BME280;2501;51.214;6.768;2023-03-11T05:13:20;100585.50;;;-0.08;86.82
4972;BME280;2501;51.214;6.768;2023-03-11T05:15:51;100583.88;;;0.13;85.88
4972;BME280;2501;51.214;6.768;2023-03-11T05:18:20;100589.22;;;0.18;85.62
4972;BME280;2501;51.214;6.768;2023-03-11T05:20:48;100591.22;;;0.23;84.83
4972;BME280;2501;51.214;6.768;2023-03-11T05:23:17;100591.06;;;0.20;84.51
4972;BME280;2501;51.214;6.768;2023-03-11T05:25:46;100591.00;;;0.19;83.99
4972;BME280;2501;51.214;6.768;2023-03-11T05:28:14;100595.09;;;0.33;83.82
4972;BME280;2501;51.214;6.768;2023-03-11T05:30:43;100601.28;;;0.17;83.88
4972;BME280;2501;51.214;6.768;2023-03-11T05:33:14;100600.25;;;0.33;83.71
4972;BME280;2501;51.214;6.768;2023-03-11T05:35:42;100594.00;;;0.47;82.94
4972;BME280;2501;51.214;6.768;2023-03-11T05:38:11;100591.06;;;0.40;82.39
4972;BME280;2501;51.214;6.768;2023-03-11T05:40:40;100602.34;;;0.42;82.64
4972;BME280;2501;51.214;6.768;2023-03-11T05:43:08;100607.44;;;0.40;82.56
4972;BME280;2501;51.214;6.768;2023-03-11T05:45:37;100601.31;;;0.57;82.75
4972;BME280;2501;51.214;6.768;2023-03-11T05:48:05;100607.94;;;0.52;82.76
4972;BME280;2501;51.214;6.768;2023-03-11T05:50:36;100608.91;;;0.35;82.84
4972;BME280;2501;51.214;6.768;2023-03-11T05:53:05;100604.09;;;0.62;82.09
4972;BME280;2501;51.214;6.768;2023-03-11T05:55:33;100614.06;;;0.54;81.73
4972;BME280;2501;51.214;6.768;2023-03-11T05:58:01;100613.88;;;0.50;81.80
4972;BME280;2501;51.214;6.768;2023-03-11T06:00:33;100612.56;;;0.59;80.97
4972;BME280;2501;51.214;6.768;2023-03-11T06:03:01;100616.25;;;0.64;81.06
4972;BME280;2501;51.214;6.768;2023-03-11T06:05:29;100618.97;;;0.67;80.72
4972;BME280;2501;51.214;6.768;2023-03-11T06:08:00;100615.03;;;0.56;81.04
4972;BME280;2501;51.214;6.768;2023-03-11T06:10:29;100630.19;;;0.68;81.40
4972;BME280;2501;51.214;6.768;2023-03-11T06:12:57;100627.47;;;0.65;81.45
4972;BME280;2501;51.214;6.768;2023-03-11T06:15:26;100635.13;;;0.44;82.16
4972;BME280;2501;51.214;6.768;2023-03-11T06:17:54;100630.66;;;0.40;81.84
4972;BME280;2501;51.214;6.768;2023-03-11T06:20:23;100628.47;;;0.68;82.00
4972;BME280;2501;51.214;6.768;2023-03-11T06:22:52;100626.03;;;0.33;82.07
4972;BME280;2501;51.214;6.768;2023-03-11T06:25:23;100632.66;;;0.86;81.15
4972;BME280;2501;51.214;6.768;2023-03-11T06:27:51;100641.38;;;0.49;80.71
4972;BME280;2501;51.214;6.768;2023-03-11T06:30:21;100645.44;;;0.63;80.65
4972;BME280;2501;51.214;6.768;2023-03-11T06:32:50;100650.47;;;0.41;80.62
4972;BME280;2501;51.214;6.768;2023-03-11T06:35:19;100652.03;;;0.38;82.06
4972;BME280;2501;51.214;6.768;2023-03-11T06:37:48;100652.97;;;0.78;82.91
4972;BME280;2501;51.214;6.768;2023-03-11T06:40:16;100652.09;;;0.58;83.68
4972;BME280;2501;51.214;6.768;2023-03-11T06:42:47;100659.03;;;0.79;82.50
4972;BME280;2501;51.214;6.768;2023-03-11T06:45:17;100659.84;;;0.78;82.25
4972;BME280;2501;51.214;6.768;2023-03-11T06:47:45;100658.34;;;0.83;82.33
4972;BME280;2501;51.214;6.768;2023-03-11T06:50:14;100667.50;;;0.76;81.73
4972;BME280;2501;51.214;6.768;2023-03-11T06:52:42;100670.53;;;0.87;81.99
4972;BME280;2501;51.214;6.768;2023-03-11T06:55:11;100671.41;;;0.66;81.52
4972;BME280;2501;51.214;6.768;2023-03-11T06:57:39;100679.25;;;0.69;82.88
4972;BME280;2501;51.214;6.768;2023-03-11T07:00:13;100687.28;;;0.95;82.60
4972;BME280;2501;51.214;6.768;2023-03-11T07:02:41;100694.81;;;0.71;82.38
4972;BME280;2501;51.214;6.768;2023-03-11T07:05:10;100702.97;;;0.61;83.27
4972;BME280;2501;51.214;6.768;2023-03-11T07:07:39;100715.47;;;0.52;83.06
4972;BME280;2501;51.214;6.768;2023-03-11T07:10:09;100721.09;;;0.43;83.41
4972;BME280;2501;51.214;6.768;2023-03-11T07:12:37;100720.34;;;0.46;83.64
4972;BME280;2501;51.214;6.768;2023-03-11T07:15:07;100722.13;;;0.47;83.69
4972;BME280;2501;51.214;6.768;2023-03-11T07:17:39;100720.31;;;0.63;83.23
4972;BME280;2501;51.214;6.768;2023-03-11T07:20:09;100723.84;;;0.85;83.18
4972;BME280;2501;51.214;6.768;2023-03-11T07:22:37;100729.25;;;0.52;83.11
4972;BME280;2501;51.214;6.768;2023-03-11T07:25:06;100732.84;;;0.56;83.26
4972;BME280;2501;51.214;6.768;2023-03-11T07:27:35;100738.16;;;0.78;82.63
4972;BME280;2501;51.214;6.768;2023-03-11T07:30:04;100741.09;;;0.86;81.59
4972;BME280;2501;51.214;6.768;2023-03-11T07:32:33;100742.31;;;0.75;81.24
4972;BME280;2501;51.214;6.768;2023-03-11T07:35:05;100750.78;;;0.72;81.32
4972;BME280;2501;51.214;6.768;2023-03-11T07:37:33;100754.59;;;0.61;81.41
4972;BME280;2501;51.214;6.768;2023-03-11T07:40:02;100764.31;;;0.66;81.82
4972;BME280;2501;51.214;6.768;2023-03-11T07:42:30;100764.59;;;0.73;82.21
4972;BME280;2501;51.214;6.768;2023-03-11T07:44:59;100766.50;;;0.77;81.91
4972;BME280;2501;51.214;6.768;2023-03-11T07:47:27;100767.59;;;0.82;81.81
4972;BME280;2501;51.214;6.768;2023-03-11T07:49:56;100770.56;;;0.91;81.90
4972;BME280;2501;51.214;6.768;2023-03-11T07:52:28;100779.69;;;1.02;81.89
4972;BME280;2501;51.214;6.768;2023-03-11T07:54:57;100776.16;;;1.00;81.56
4972;BME280;2501;51.214;6.768;2023-03-11T07:57:25;100777.22;;;1.05;81.22
4972;BME280;2501;51.214;6.768;2023-03-11T07:59:54;100789.97;;;1.00;81.04
4972;BME280;2501;51.214;6.768;2023-03-11T08:02:22;100797.72;;;1.20;80.69
4972;BME280;2501;51.214;6.768;2023-03-11T08:04:51;100801.22;;;1.22;80.60
4972;BME280;2501;51.214;6.768;2023-03-11T08:07:20;100792.13;;;1.30;80.18
4972;BME280;2501;51.214;6.768;2023-03-11T08:09:52;100791.59;;;1.18;79.33
4972;BME280;2501;51.214;6.768;2023-03-11T08:12:20;100795.53;;;1.10;79.08
4972;BME280;2501;51.214;6.768;2023-03-11T08:14:49;100792.88;;;1.27;79.36
4972;BME280;2501;51.214;6.768;2023-03-11T08:17:17;100793.53;;;1.43;78.99
4972;BME280;2501;51.214;6.768;2023-03-11T08:19:47;100798.34;;;1.54;78.70
4972;BME280;2501;51.214;6.768;2023-03-11T08:22:16;100798.81;;;1.46;78.77
4972;BME280;2501;51.214;6.768;2023-03-11T08:24:45;100796.91;;;1.82;78.47
4972;BME280;2501;51.214;6.768;2023-03-11T08:27:16;100801.91;;;1.98;77.36
4972;BME280;2501;51.214;6.768;2023-03-11T08:29:44;100801.41;;;1.86;76.43
4972;BME280;2501;51.214;6.768;2023-03-11T08:32:13;100798.00;;;1.87;76.03
4972;BME280;2501;51.214;6.768;2023-03-11T08:34:41;100806.25;;;2.20;75.49
4972;BME280;2501;51.214;6.768;2023-03-11T08:37:09;100805.41;;;2.41;74.52
4972;BME280;2501;51.214;6.768;2023-03-11T08:39:38;100809.47;;;2.14;74.39
4972;BME280;2501;51.214;6.768;2023-03-11T08:42:06;100811.00;;;2.31;74.77
4972;BME280;2501;51.214;6.768;2023-03-11T08:44:38;100809.22;;;2.73;72.53
4972;BME280;2501;51.214;6.768;2023-03-11T08:47:07;100803.91;;;2.93;71.46
4972;BME280;2501;51.214;6.768;2023-03-11T08:49:36;100798.44;;;3.33;69.51
4972;BME280;2501;51.214;6.768;2023-03-11T08:52:05;100802.78;;;2.86;68.02
4972;BME280;2501;51.214;6.768;2023-03-11T08:54:34;100798.38;;;2.84;68.03
4972;BME280;2501;51.214;6.768;2023-03-11T08:57:02;100806.22;;;2.63;67.84
4972;BME280;2501;51.214;6.768;2023-03-11T08:59:31;100807.25;;;2.45;68.60
4972;BME280;2501;51.214;6.768;2023-03-11T09:02:03;100812.88;;;2.56;69.72
4972;BME280;2501;51.214;6.768;2023-03-11T09:04:32;100806.06;;;3.04;68.03
4972;BME280;2501;51.214;6.768;2023-03-11T09:07:00;100817.09;;;2.54;68.29
4972;BME280;2501;51.214;6.768;2023-03-11T09:09:29;100826.38;;;2.49;69.53
4972;BME280;2501;51.214;6.768;2023-03-11T09:11:57;100813.34;;;2.91;68.10
4972;BME280;2501;51.214;6.768;2023-03-11T09:14:26;100811.63;;;2.91;63.95
4972;BME280;2501;51.214;6.768;2023-03-11T09:16:54;100806.97;;;2.83;59.89
4972;BME280;2501;51.214;6.768;2023-03-11T09:19:25;100799.31;;;2.86;58.25
4972;BME280;2501;51.214;6.768;2023-03-11T09:21:54;100799.94;;;3.02;57.56
4972;BME280;2501;51.214;6.768;2023-03-11T09:24:23;100796.84;;;3.36;56.43
4972;BME280;2501;51.214;6.768;2023-03-11T09:26:51;100799.44;;;3.36;54.99
4972;BME280;2501;51.214;6.768;2023-03-11T09:29:20;100797.44;;;3.29;54.25
4972;BME280;2501;51.214;6.768;2023-03-11T09:31:49;100800.50;;;3.41;53.35
4972;BME280;2501;51.214;6.768;2023-03-11T09:34:17;100808.59;;;3.50;54.05
4972;BME280;2501;51.214;6.768;2023-03-11T09:36:49;100812.59;;;3.41;53.17
4972;BME280;2501;51.214;6.768;2023-03-11T09:39:19;100816.22;;;3.46;52.71
4972;BME280;2501;51.214;6.768;2023-03-11T09:41:52;100814.13;;;3.36;51.70
4972;BME280;2501;51.214;6.768;2023-03-11T09:44:27;100825.16;;;3.30;52.00
4972;BME280;2501;51.214;6.768;2023-03-11T09:47:05;100821.22;;;3.18;52.06
4972;BME280;2501;51.214;6.768;2023-03-11T09:49:47;100817.34;;;3.29;51.69
4972;BME280;2501;51.214;6.768;2023-03-11T09:52:26;100821.56;;;3.03;51.83
4972;BME280;2501;51.214;6.768;2023-03-11T09:54:57;100814.22;;;3.63;52.79
4972;BME280;2501;51.214;6.768;2023-03-11T09:57:31;100814.94;;;3.84;52.84
4972;BME280;2501;51.214;6.768;2023-03-11T10:00:04;100818.13;;;4.28;52.96
4972;BME280;2501;51.214;6.768;2023-03-11T10:02:35;100821.63;;;4.03;51.08
4972;BME280;2501;51.214;6.768;2023-03-11T10:05:08;100831.00;;;3.98;50.41
4972;BME280;2501;51.214;6.768;2023-03-11T10:07:48;100835.69;;;3.84;49.88
4972;BME280;2501;51.214;6.768;2023-03-11T10:10:20;100831.63;;;3.67;51.17
4972;BME280;2501;51.214;6.768;2023-03-11T10:12:53;100840.81;;;3.57;50.78
4972;BME280;2501;51.214;6.768;2023-03-11T10:15:30;100842.34;;;3.52;50.79
4972;BME280;2501;51.214;6.768;2023-03-11T10:21:19;100845.88;;;4.03;49.87
4972;BME280;2501;51.214;6.768;2023-03-11T10:24:05;100843.53;;;4.11;49.28
4972;BME280;2501;51.214;6.768;2023-03-11T10:26:41;100845.59;;;4.21;49.58
4972;BME280;2501;51.214;6.768;2023-03-11T10:29:16;100850.06;;;4.79;48.28
4972;BME280;2501;51.214;6.768;2023-03-11T10:31:50;100851.75;;;4.78;47.41
4972;BME280;2501;51.214;6.768;2023-03-11T10:34:25;100847.41;;;5.37;47.70
4972;BME280;2501;51.214;6.768;2023-03-11T10:37:00;100845.47;;;5.60;46.27
4972;BME280;2501;51.214;6.768;2023-03-11T10:39:32;100858.78;;;4.81;46.33
4972;BME280;2501;51.214;6.768;2023-03-11T10:42:04;100859.22;;;4.41;47.97
4972;BME280;2501;51.214;6.768;2023-03-11T10:44:34;100852.72;;;4.27;47.62
4972;BME280;2501;51.214;6.768;2023-03-11T10:47:03;100851.66;;;4.22;47.74
4972;BME280;2501;51.214;6.768;2023-03-11T10:49:32;100859.06;;;4.36;47.94
4972;BME280;2501;51.214;6.768;2023-03-11T10:52:02;100852.94;;;4.07;48.27
4972;BME280;2501;51.214;6.768;2023-03-11T10:54:36;100851.97;;;4.58;47.33
4972;BME280;2501;51.214;6.768;2023-03-11T10:57:20;100842.84;;;4.99;46.38
4972;BME280;2501;51.214;6.768;2023-03-11T10:59:51;100844.28;;;4.89;46.22
4972;BME280;2501;51.214;6.768;2023-03-11T11:02:26;100843.69;;;4.98;46.16
4972;BME280;2501;51.214;6.768;2023-03-11T11:05:07;100840.44;;;5.35;44.94
4972;BME280;2501;51.214;6.768;2023-03-11T11:07:50;100837.78;;;5.03;45.80
4972;BME280;2501;51.214;6.768;2023-03-11T11:10:23;100843.25;;;5.12;45.23
4972;BME280;2501;51.214;6.768;2023-03-11T11:12:54;100844.69;;;5.03;44.88
4972;BME280;2501;51.214;6.768;2023-03-11T11:15:25;100838.53;;;5.29;44.95
4972;BME280;2501;51.214;6.768;2023-03-11T11:17:56;100839.41;;;5.00;45.42
4972;BME280;2501;51.214;6.768;2023-03-11T11:20:27;100839.03;;;5.16;46.00
4972;BME280;2501;51.214;6.768;2023-03-11T11:22:57;100847.81;;;5.21;45.25
4972;BME280;2501;51.214;6.768;2023-03-11T11:25:31;100845.97;;;5.78;43.88
4972;BME280;2501;51.214;6.768;2023-03-11T11:28:03;100852.81;;;5.13;44.54
4972;BME280;2501;51.214;6.768;2023-03-11T11:30:32;100849.47;;;4.89;45.26
4972;BME280;2501;51.214;6.768;2023-03-11T11:33:20;100860.59;;;4.85;45.62
4972;BME280;2501;51.214;6.768;2023-03-11T11:35:52;100864.75;;;4.78;46.17
4972;BME280;2501;51.214;6.768;2023-03-11T11:38:23;100863.88;;;4.78;46.69
4972;BME280;2501;51.214;6.768;2023-03-11T11:40:56;100865.56;;;5.06;47.38
4972;BME280;2501;51.214;6.768;2023-03-11T11:43:45;100851.94;;;5.43;47.18
4972;BME280;2501;51.214;6.768;2023-03-11T11:46:20;100850.28;;;5.78;45.79
4972;BME280;2501;51.214;6.768;2023-03-11T11:48:55;100844.03;;;5.40;45.83
4972;BME280;2501;51.214;6.768;2023-03-11T11:51:29;100850.09;;;4.80;47.25
4972;BME280;2501;51.214;6.768;2023-03-11T11:54:04;100851.50;;;4.71;48.54
4972;BME280;2501;51.214;6.768;2023-03-11T11:56:36;100841.38;;;5.38;46.27
4972;BME280;2501;51.214;6.768;2023-03-11T11:59:12;100843.50;;;5.83;44.60
4972;BME280;2501;51.214;6.768;2023-03-11T12:01:49;100848.59;;;5.17;45.55
4972;BME280;2501;51.214;6.768;2023-03-11T12:04:47;100848.91;;;4.71;47.15
4972;BME280;2501;51.214;6.768;2023-03-11T12:07:26;100856.09;;;4.51;47.19
4972;BME280;2501;51.214;6.768;2023-03-11T12:10:01;100858.69;;;4.78;47.05
4972;BME280;2501;51.214;6.768;2023-03-11T12:12:39;100856.59;;;4.95;46.06
4972;BME280;2501;51.214;6.768;2023-03-11T12:15:14;100851.25;;;5.20;45.07
4972;BME280;2501;51.214;6.768;2023-03-11T12:17:49;100863.19;;;4.83;46.12
4972;BME280;2501;51.214;6.768;2023-03-11T12:20:21;100857.38;;;5.22;45.24
4972;BME280;2501;51.214;6.768;2023-03-11T12:23:15;100855.53;;;5.48;44.96
4972;BME280;2501;51.214;6.768;2023-03-11T12:25:56;100857.91;;;5.40;46.13
4972;BME280;2501;51.214;6.768;2023-03-11T12:28:38;100858.16;;;5.48;46.08
4972;BME280;2501;51.214;6.768;2023-03-11T12:31:09;100862.03;;;5.93;44.90
4972;BME280;2501;51.214;6.768;2023-03-11T12:33:40;100858.97;;;6.10;44.89
4972;BME280;2501;51.214;6.768;2023-03-11T12:36:21;100861.66;;;5.81;45.08
4972;BME280;2501;51.214;6.768;2023-03-11T12:38:52;100849.03;;;5.64;44.50
4972;BME280;2501;51.214;6.768;2023-03-11T12:41:29;100848.53;;;5.77;45.08
4972;BME280;2501;51.214;6.768;2023-03-11T12:44:19;100847.72;;;5.79;45.03
4972;BME280;2501;51.214;6.768;2023-03-11T12:47:15;100862.53;;;5.19;45.64
4972;BME280;2501;51.214;6.768;2023-03-11T12:49:45;100861.94;;;4.99;46.38
4972;BME280;2501;51.214;6.768;2023-03-11T12:52:22;100868.09;;;4.47;47.63
4972;BME280;2501;51.214;6.768;2023-03-11T12:58:28;100851.53;;;4.44;48.06
4972;BME280;2501;51.214;6.768;2023-03-11T13:01:19;100849.94;;;4.47;47.85
4972;BME280;2501;51.214;6.768;2023-03-11T13:04:05;100848.13;;;4.73;47.21
4972;BME280;2501;51.214;6.768;2023-03-11T13:09:42;100851.19;;;4.88;47.30
4972;BME280;2501;51.214;6.768;2023-03-11T13:12:39;100842.78;;;4.69;46.89
4972;BME280;2501;51.214;6.768;2023-03-11T13:15:30;100831.81;;;5.36;45.68
4972;BME280;2501;51.214;6.768;2023-03-11T13:18:17;100837.88;;;5.06;45.70
4972;BME280;2501;51.214;6.768;2023-03-11T13:20:52;100844.44;;;4.38;46.15
4972;BME280;2501;51.214;6.768;2023-03-11T13:23:28;100833.56;;;4.50;46.62
4972;BME280;2501;51.214;6.768;2023-03-11T13:29:18;100847.41;;;4.77;47.57
4972;BME280;2501;51.214;6.768;2023-03-11T13:32:01;100837.88;;;5.36;47.14
4972;BME280;2501;51.214;6.768;2023-03-11T13:34:41;100831.81;;;5.67;45.48
4972;BME280;2501;51.214;6.768;2023-03-11T13:37:22;100828.84;;;5.55;44.87
4972;BME280;2501;51.214;6.768;2023-03-11T13:40:04;100829.94;;;5.94;44.04
4972;BME280;2501;51.214;6.768;2023-03-11T13:42:42;100834.25;;;5.94;43.71
4972;BME280;2501;51.214;6.768;2023-03-11T13:45:21;100837.03;;;5.69;45.06
4972;BME280;2501;51.214;6.768;2023-03-11T13:47:56;100843.81;;;4.74;47.32
4972;BME280;2501;51.214;6.768;2023-03-11T13:50:30;100838.41;;;5.56;47.72
4972;BME280;2501;51.214;6.768;2023-03-11T13:53:05;100818.97;;;7.20;43.51
4972;BME280;2501;51.214;6.768;2023-03-11T13:55:38;100821.34;;;7.08;40.96
4972;BME280;2501;51.214;6.768;2023-03-11T13:58:16;100832.91;;;6.44;43.20